Overview Statistics Trail Chart Weather Telemetry Raw packets
 

This is the latest recevied telemetry packets stored in our database for station/object OE6POD-6. If no packets are shown the sender has not sent any telemetry packets the latest 10 day(s).

Telemetry packets is used to share measurements like repeteater parameters, battery voltage, radiation readings (or any other measurements).

<< 1 2 3 4 >>
Time Press* Temp.in* Hum* QNH* Temp.out*
1788567068 941 hPa 30.9 C deg 53.7 % 1016.1 hPa 27.7 C deg
1788565239 941 hPa 31 C deg 53.7 % 1016 hPa 27.8 C deg
1788563456 941 hPa 31 C deg 53.6 % 1016 hPa 27.8 C deg
1788561630 941.1 hPa 31 C deg 53.6 % 1016.1 hPa 27.8 C deg
1788559787 941 hPa 31 C deg 53.6 % 1016 hPa 27.8 C deg
1788557896 940.8 hPa 31 C deg 53.4 % 1015.8 hPa 27.9 C deg
1788556092 940.6 hPa 30.9 C deg 53.5 % 1015.6 hPa 27.9 C deg
1788554348 940.6 hPa 29.9 C deg 54.4 % 1015.8 hPa 27.9 C deg
1788552420 940.5 hPa 30.8 C deg 53.3 % 1015.6 hPa 27.8 C deg
1788550598 940.4 hPa 31 C deg 53.3 % 1015.4 hPa 27.9 C deg
1788548769 940.4 hPa 30.9 C deg 53.4 % 1015.4 hPa 27.9 C deg
1788546925 940.4 hPa 31 C deg 53.2 % 1015.3 hPa 28 C deg
1788545098 940.2 hPa 31.1 C deg 53.3 % 1015.1 hPa 28.1 C deg
1788543278 939.9 hPa 31.2 C deg 53.3 % 1014.8 hPa 28.1 C deg
1788541448 940 hPa 31.2 C deg 53.3 % 1014.9 hPa 28.2 C deg
1788539600 940.2 hPa 31 C deg 53.5 % 1015.1 hPa 28.1 C deg
1788537778 940.2 hPa 30.9 C deg 53.7 % 1015.1 hPa 28.1 C deg
1788535932 940.5 hPa 30.5 C deg 54.1 % 1015.6 hPa 28.1 C deg
1788534224 940.5 hPa 30.3 C deg 54.2 % 1015.6 hPa 28 C deg
1788532313 940.7 hPa 30.6 C deg 53.8 % 1015.8 hPa 28 C deg
1788530499 941 hPa 30.8 C deg 53.4 % 1016.1 hPa 27.8 C deg
1788528614 941.2 hPa 30.9 C deg 53.4 % 1016.3 hPa 27.6 C deg
1788526781 941.7 hPa 30.8 C deg 53.4 % 1016.8 hPa 27.5 C deg
1788524958 942 hPa 30.3 C deg 53.9 % 1017.3 hPa 27.4 C deg
1788523121 942.4 hPa 30.7 C deg 53.6 % 1017.6 hPa 27.4 C deg
*Used Equation Coefficients:
Press: 0, 1, 0
Temp.in: 0, 1, 0
Hum: 0, 1, 0
QNH: 0, 1, 0
Temp.out: 0, 1, 0

  • The parameter names for the analog channels will be Value1, Value2, Value3 (up to Value5) if station has not sent a PARAM-packet that specifies the parameter names for each analog channel.
  • Each analog value is a decimal number between 000 and 255 (according to APRS specifications). The receiver use the telemetry equation coefficientsto to restore the original sensor values. If no EQNS-packet with equation coefficients is sent we will show the values as is (this corresponds to the equation coefficients a=0, b=1 and c=0).
    The sent equation coefficients is used in the equation: a * value2 + b * value + c.
  • The units for the analog values will not be shown if station has not sent a UNIT-packet specifying what unit's to use.
  • The parameter names for the digital bits will be Bit1, Bit2, Bit3 (up to Bit8) if station has not sent a PARAM-packet that specifies the parameter names for each digital bit.
  • All bit labels will be named "On" if station has not sent a UNIT-packet that specifies the label of each bit.
  • A bit is considered to be On when the bit is 1 if station has not sent a BITS-packet that specifies another "Bit sense" (a BITS-packet specify the state of the bits that match the BIT labels)